Time;durP1;ratioP1;P1;durP2;ratioP2;P2;SDS_P1;SDS_P2;PMS_P1;PMS_P2;Temp;Humidity;BMP_temperature;BMP_pressure;BME280_temperature;BME280_humidity;BME280_pressure;Samples;Min_cycle;Max_cycle;Signal;HPM_P1;HPM_P2
2021/04/17 00:00:28;;;;;;;9.90;5.78;;;3.90;89.00;;;;;;4943050;28;20075;-37
2021/04/17 00:02:54;;;;;;;10.65;6.22;;;3.90;88.40;;;;;;4955256;28;20054;-37
2021/04/17 00:05:23;;;;;;;10.88;6.00;;;3.80;88.10;;;;;;4965347;28;20059;-37
2021/04/17 00:08:50;;;;;;;13.50;5.60;;;3.80;89.00;;;;;;4954405;28;20074;-36
2021/04/17 00:11:21;;;;;;;12.50;6.00;;;3.80;89.40;;;;;;4978700;28;20704;-36
2021/04/17 00:13:50;;;;;;;10.63;5.90;;;3.80;89.50;;;;;;4987397;28;20051;-37
2021/04/17 00:18:44;;;;;;;12.18;6.35;;;3.80;90.00;;;;;;4953964;28;20067;-36
2021/04/17 00:21:10;;;;;;;11.95;4.90;;;3.70;90.00;;;;;;4947957;29;20059;-36
2021/04/17 00:23:40;;;;;;;10.13;4.72;;;3.80;90.20;;;;;;4947580;28;20051;-37
2021/04/17 00:26:06;;;;;;;13.75;6.45;;;3.70;89.60;;;;;;4964665;28;20106;-36
2021/04/17 00:30:49;;;;;;;10.55;6.05;;;3.70;89.60;;;;;;4972557;28;20070;-37
2021/04/17 00:33:18;;;;;;;9.95;5.53;;;3.70;90.00;;;;;;4975398;28;20629;-36
2021/04/17 00:36:27;;;;;;;16.42;6.32;;;3.70;90.00;;;;;;4985338;28;20069;-36
2021/04/17 00:38:56;;;;;;;15.80;6.70;;;3.60;90.00;;;;;;4982650;28;20162;-36
2021/04/17 00:43:53;;;;;;;12.48;6.60;;;3.60;90.00;;;;;;5006405;28;20603;-36
2021/04/17 00:46:20;;;;;;;11.30;5.80;;;3.60;90.30;;;;;;5024944;28;20049;-37
2021/04/17 00:48:48;;;;;;;11.95;6.00;;;3.60;90.00;;;;;;5001534;28;20402;-37
2021/04/17 00:52:13;;;;;;;9.07;5.72;;;3.50;90.00;;;;;;5003865;28;20636;-37
2021/04/17 00:54:40;;;;;;;13.60;6.95;;;3.50;90.20;;;;;;4993299;28;20045;-37
2021/04/17 00:57:06;;;;;;;14.43;6.40;;;3.50;90.50;;;;;;4986643;28;20266;-37
2021/04/17 00:59:37;;;;;;;11.85;6.80;;;3.50;90.20;;;;;;5000777;28;20434;-37
2021/04/17 01:02:07;;;;;;;12.55;6.82;;;3.50;90.20;;;;;;5011748;28;20049;-37
2021/04/17 01:07:07;;;;;;;12.13;7.00;;;3.50;90.70;;;;;;4975581;28;20061;-37
2021/04/17 01:09:45;;;;;;;14.45;6.72;;;3.50;90.80;;;;;;4985761;28;20517;-37
2021/04/17 01:12:18;;;;;;;17.88;7.80;;;3.50;90.80;;;;;;4985402;28;20145;-37
2021/04/17 01:14:50;;;;;;;16.35;8.07;;;3.50;90.90;;;;;;4989782;28;20049;-37
2021/04/17 01:19:47;;;;;;;11.18;5.65;;;3.50;90.80;;;;;;4965779;28;20051;-37
2021/04/17 01:24:47;;;;;;;14.20;7.28;;;3.40;90.50;;;;;;4928457;29;20059;-37
2021/04/17 01:29:02;;;;;;;13.00;7.07;;;3.40;91.00;;;;;;4874915;29;20068;-37
2021/04/17 01:31:33;;;;;;;10.45;6.93;;;3.40;91.10;;;;;;4895843;29;20052;-37
2021/04/17 01:34:06;;;;;;;14.13;7.60;;;3.40;90.70;;;;;;4900840;29;20048;-37
2021/04/17 01:36:39;;;;;;;11.77;7.13;;;3.30;91.00;;;;;;4897670;29;20651;-37
2021/04/17 01:39:15;;;;;;;20.08;7.65;;;3.30;90.80;;;;;;4943880;29;20063;-37
2021/04/17 01:43:52;;;;;;;13.63;6.93;;;3.30;91.30;;;;;;4896122;29;20096;-37
2021/04/17 01:46:21;;;;;;;12.32;7.07;;;3.30;91.10;;;;;;4908627;29;20623;-37
2021/04/17 01:48:52;;;;;;;9.45;6.80;;;3.20;91.20;;;;;;4907790;29;20129;-37
2021/04/17 01:51:23;;;;;;;10.35;7.22;;;3.20;90.90;;;;;;4951789;28;20054;-37
2021/04/17 01:53:56;;;;;;;16.55;7.93;;;3.20;91.40;;;;;;4977458;28;20062;-37
2021/04/17 01:59:03;;;;;;;15.85;8.40;;;3.20;91.30;;;;;;4964966;28;20110;-37
2021/04/17 02:03:43;;;;;;;13.82;7.63;;;3.10;91.30;;;;;;4945159;29;20159;-37
2021/04/17 02:08:24;;;;;;;14.73;7.82;;;3.10;92.30;;;;;;4929968;29;20055;-37
2021/04/17 02:10:52;;;;;;;15.40;8.30;;;3.00;92.10;;;;;;4945485;29;20059;-37
2021/04/17 02:13:20;;;;;;;14.10;7.93;;;3.00;91.60;;;;;;4944888;29;20065;-37
2021/04/17 02:15:47;;;;;;;20.50;8.80;;;3.00;92.00;;;;;;4979207;28;20060;-37
2021/04/17 02:20:35;;;;;;;17.70;8.85;;;3.00;92.10;;;;;;4964473;28;20585;-37
2021/04/17 02:23:01;;;;;;;14.43;7.65;;;3.00;92.80;;;;;;4965337;28;20050;-37
2021/04/17 02:25:31;;;;;;;13.80;8.80;;;3.00;92.20;;;;;;4964985;28;20050;-37
2021/04/17 02:27:58;;;;;;;14.65;8.85;;;3.00;93.20;;;;;;4965629;28;20051;-37
2021/04/17 02:30:26;;;;;;;15.25;8.68;;;2.90;92.80;;;;;;4991374;28;20054;-37
2021/04/17 02:35:10;;;;;;;17.67;9.25;;;2.90;92.90;;;;;;4988777;28;20053;-37
2021/04/17 02:39:56;;;;;;;14.45;8.75;;;2.90;93.10;;;;;;4979368;28;20062;-37
2021/04/17 02:43:22;;;;;;;18.17;9.10;;;2.80;93.20;;;;;;4946484;28;20475;-37
2021/04/17 02:45:51;;;;;;;18.17;9.88;;;2.80;92.80;;;;;;4957024;28;20070;-37
2021/04/17 02:48:20;;;;;;;14.73;9.57;;;2.80;92.50;;;;;;4965322;28;20066;-37
2021/04/17 02:50:47;;;;;;;13.85;9.40;;;2.80;92.80;;;;;;4964249;28;20128;-37
2021/04/17 02:53:57;;;;;;;18.58;9.52;;;2.80;92.80;;;;;;4926109;29;20207;-37
2021/04/17 02:56:28;;;;;;;20.00;10.35;;;2.80;92.90;;;;;;4926038;29;20048;-37
2021/04/17 02:58:54;;;;;;;14.88;9.20;;;2.80;92.70;;;;;;4927843;29;20075;-37
2021/04/17 03:01:23;;;;;;;15.10;8.65;;;2.80;93.10;;;;;;4947790;29;20170;-37
2021/04/17 03:03:54;;;;;;;15.85;9.77;;;2.80;92.90;;;;;;4941843;28;20063;-37
2021/04/17 03:06:24;;;;;;;13.20;9.50;;;2.80;93.30;;;;;;4955518;28;20065;-37
2021/04/17 03:10:49;;;;;;;18.60;10.35;;;2.80;93.40;;;;;;4984349;28;20060;-37
2021/04/17 03:13:16;;;;;;;12.10;8.95;;;2.80;93.60;;;;;;5009357;28;20052;-37
2021/04/17 03:18:04;;;;;;;17.83;9.85;;;2.70;93.60;;;;;;5027115;28;20437;-36
2021/04/17 03:21:11;;;;;;;19.85;9.80;;;2.70;93.40;;;;;;5007055;28;20054;-37
2021/04/17 03:24:41;;;;;;;19.63;8.73;;;2.60;93.20;;;;;;4966044;28;20113;-36
2021/04/17 03:27:10;;;;;;;12.38;9.05;;;2.70;93.20;;;;;;4968168;28;20155;-37
2021/04/17 03:29:36;;;;;;;13.70;9.25;;;2.60;92.90;;;;;;4969252;28;20062;-37
2021/04/17 03:32:03;;;;;;;17.00;9.35;;;2.60;93.70;;;;;;4968737;28;20050;-37
2021/04/17 03:34:32;;;;;;;16.38;8.55;;;2.60;93.90;;;;;;4974102;28;20055;-37
2021/04/17 03:39:07;;;;;;;12.20;8.77;;;2.60;94.10;;;;;;4960364;28;20106;-35
2021/04/17 03:41:34;;;;;;;18.88;9.45;;;2.60;94.40;;;;;;4968292;28;20062;-35
2021/04/17 03:44:05;;;;;;;15.50;8.82;;;2.60;94.10;;;;;;4967158;28;20053;-36
2021/04/17 03:46:31;;;;;;;12.63;7.72;;;2.60;93.50;;;;;;4967802;28;20204;-36
2021/04/17 03:48:57;;;;;;;13.23;8.65;;;2.60;93.70;;;;;;4976474;28;20046;-36
2021/04/17 03:51:24;;;;;;;14.20;8.82;;;2.50;93.90;;;;;;4986163;28;20054;-36
2021/04/17 03:56:07;;;;;;;20.25;8.73;;;2.50;93.70;;;;;;4994899;28;20506;-36
2021/04/17 04:01:03;;;;;;;12.23;8.55;;;2.50;93.40;;;;;;4986686;28;20802;-36
2021/04/17 04:03:32;;;;;;;18.95;9.65;;;2.50;93.80;;;;;;4987053;28;20054;-36
2021/04/17 04:06:39;;;;;;;11.77;7.72;;;2.40;93.80;;;;;;4943534;29;20507;-36
2021/04/17 04:09:05;;;;;;;11.25;8.07;;;2.40;93.30;;;;;;4946711;29;20151;-36
2021/04/17 04:11:37;;;;;;;15.00;9.70;;;2.40;93.60;;;;;;4947605;28;20059;-36
2021/04/17 04:14:03;;;;;;;12.57;8.40;;;2.40;94.40;;;;;;4947657;29;20233;-36
2021/04/17 04:16:35;;;;;;;15.98;8.77;;;2.40;94.00;;;;;;4957430;28;20066;-36
2021/04/17 04:22:02;;;;;;;14.65;8.52;;;2.40;93.90;;;;;;4966819;28;20090;-36
2021/04/17 04:24:31;;;;;;;12.05;7.63;;;2.40;94.60;;;;;;4967396;28;20523;-36
2021/04/17 04:27:00;;;;;;;11.50;8.02;;;2.40;94.10;;;;;;4975089;28;20054;-36
2021/04/17 04:31:44;;;;;;;13.00;8.10;;;2.40;94.10;;;;;;4961926;28;20050;-36
2021/04/17 04:35:11;;;;;;;14.75;8.30;;;2.40;93.50;;;;;;4954642;28;20423;-36
2021/04/17 04:38:22;;;;;;;13.93;8.60;;;2.40;93.60;;;;;;4947615;29;20138;-37
2021/04/17 04:41:49;;;;;;;12.20;7.65;;;2.30;93.80;;;;;;4947508;28;20149;-38
2021/04/17 04:45:19;;;;;;;11.70;8.07;;;2.40;93.30;;;;;;4908839;29;20048;-37
2021/04/17 04:47:50;;;;;;;16.15;8.48;;;2.40;93.70;;;;;;4909866;29;20091;-38
2021/04/17 05:00:59;;;;;;;11.57;7.95;;;2.40;93.90;;;;;;6118844;22;3798540;-38
2021/04/17 05:03:29;;;;;;;15.07;9.30;;;2.60;95.50;;;;;;6277030;22;20394;-39
2021/04/17 05:05:55;;;;;;;19.00;10.88;;;2.70;95.80;;;;;;6276235;22;20065;-39
2021/04/17 05:08:21;;;;;;;19.63;10.07;;;2.90;95.80;;;;;;6287761;22;20047;-39
2021/04/17 05:10:48;;;;;;;14.88;8.45;;;3.00;95.70;;;;;;6250838;22;20023;-39
2021/04/17 05:13:16;;;;;;;13.70;7.68;;;3.00;95.70;;;;;;6277785;22;20020;-39
2021/04/17 05:15:45;;;;;;;14.95;7.07;;;3.20;95.50;;;;;;6276059;22;20023;-39
2021/04/17 05:18:14;;;;;;;15.75;6.93;;;3.40;95.40;;;;;;6277916;22;20015;-39
2021/04/17 05:20:46;;;;;;;11.25;6.35;;;3.50;95.10;;;;;;6287746;22;20015;-38
2021/04/17 05:23:15;;;;;;;14.15;6.47;;;3.60;94.80;;;;;;6277596;22;20015;-39
2021/04/17 05:25:41;;;;;;;12.52;5.68;;;3.70;94.60;;;;;;6276702;22;20069;-40
2021/04/17 05:28:10;;;;;;;14.23;5.63;;;3.80;94.30;;;;;;6277262;22;20019;-40
2021/04/17 05:30:37;;;;;;;12.40;6.07;;;3.90;94.30;;;;;;6277149;22;20687;-40
2021/04/17 05:33:07;;;;;;;12.07;5.78;;;3.90;94.30;;;;;;6250397;22;20011;-39
2021/04/17 05:35:33;;;;;;;16.50;5.50;;;4.00;94.30;;;;;;6286781;22;20065;-40
2021/04/17 05:38:01;;;;;;;12.77;5.18;;;4.10;94.00;;;;;;6277220;22;20034;-39
2021/04/17 05:40:30;;;;;;;14.27;5.60;;;4.10;94.00;;;;;;6286799;22;20023;-40
2021/04/17 05:42:59;;;;;;;13.38;4.47;;;4.20;94.10;;;;;;6276576;22;20019;-39
2021/04/17 05:45:31;;;;;;;12.33;5.47;;;4.40;94.10;;;;;;6276908;22;20022;-40
2021/04/17 05:48:03;;;;;;;11.00;4.70;;;4.50;93.80;;;;;;6277159;22;20031;-40
2021/04/17 05:50:31;;;;;;;17.77;5.07;;;4.70;93.90;;;;;;6249482;22;20062;-39
2021/04/17 05:53:00;;;;;;;11.73;4.93;;;4.80;93.70;;;;;;6276749;22;20054;-39
2021/04/17 05:55:29;;;;;;;11.98;4.30;;;5.10;93.30;;;;;;6286615;22;20016;-39
2021/04/17 05:58:03;;;;;;;9.68;4.38;;;5.20;93.10;;;;;;6276361;22;20019;-39
2021/04/17 06:00:30;;;;;;;11.82;4.60;;;5.40;93.00;;;;;;6274249;22;20024;-38
2021/04/17 06:02:56;;;;;;;15.35;7.22;;;5.50;92.70;;;;;;6269246;22;20543;-36
2021/04/17 06:05:26;;;;;;;11.85;4.53;;;5.70;92.70;;;;;;6268638;22;20023;-37
2021/04/17 06:07:55;;;;;;;13.70;4.28;;;5.90;92.40;;;;;;6269007;22;20034;-37
2021/04/17 06:10:23;;;;;;;28.77;13.85;;;6.10;92.00;;;;;;6268621;22;20020;-37
2021/04/17 06:12:53;;;;;;;14.48;6.25;;;6.30;92.00;;;;;;6269513;22;20054;-37
2021/04/17 06:15:24;;;;;;;24.80;13.45;;;6.50;91.80;;;;;;6269062;22;20026;-37
2021/04/17 06:17:51;;;;;;;28.83;17.50;;;6.70;91.50;;;;;;6242859;22;20050;-37
2021/04/17 06:20:20;;;;;;;17.73;5.57;;;6.80;91.20;;;;;;6241135;22;20024;-38
2021/04/17 06:22:46;;;;;;;22.38;8.07;;;7.00;91.10;;;;;;6266554;22;20081;-41
2021/04/17 06:25:15;;;;;;;14.10;6.18;;;7.20;91.00;;;;;;6267863;22;20019;-42
2021/04/17 06:27:47;;;;;;;27.02;14.95;;;7.50;90.80;;;;;;6267574;22;20043;-41
2021/04/17 06:30:17;;;;;;;208.98;166.95;;;7.70;90.40;;;;;;6240968;22;20031;-43
2021/04/17 06:32:49;;;;;;;38.40;26.98;;;8.40;90.50;;;;;;6276601;22;20023;-44
2021/04/17 06:35:21;;;;;;;;;;;8.40;87.70;;;;;;6239461;22;20360;-43
2021/04/17 06:37:51;;;;;;;29.33;16.38;;;8.40;85.90;;;;;;6277847;22;19919;-39
2021/04/17 06:40:19;;;;;;;31.98;15.77;;;8.50;87.80;;;;;;6239388;22;20023;-38
2021/04/17 06:42:50;;;;;;;16.98;7.43;;;8.70;87.80;;;;;;6266522;22;20023;-37
2021/04/17 06:45:25;;;;;;;16.88;7.07;;;8.90;84.70;;;;;;6267103;22;20015;-37
2021/04/17 06:47:57;;;;;;;21.17;11.88;;;9.00;84.10;;;;;;6265994;22;20428;-37
2021/04/17 06:50:27;;;;;;;26.95;11.98;;;9.40;83.80;;;;;;6267384;22;20460;-37
2021/04/17 06:52:55;;;;;;;45.63;27.05;;;9.60;82.60;;;;;;6268567;22;20099;-37
2021/04/17 06:55:21;;;;;;;39.40;25.08;;;9.80;80.60;;;;;;6266360;22;20022;-37
2021/04/17 06:57:56;;;;;;;52.05;37.75;;;9.90;81.70;;;;;;6266300;22;20110;-44
2021/04/17 07:00:26;;;;;;;49.10;32.65;;;10.10;79.30;;;;;;6263819;22;20715;-43
2021/04/17 07:02:53;;;;;;;18.05;9.77;;;10.30;78.90;;;;;;6277080;22;20348;-44
2021/04/17 07:05:22;;;;;;;21.17;12.80;;;10.60;79.00;;;;;;6266436;22;20055;-43
2021/04/17 07:07:49;;;;;;;16.65;7.78;;;10.70;77.50;;;;;;6239216;22;20016;-43
2021/04/17 07:10:20;;;;;;;19.77;9.80;;;11.00;76.60;;;;;;6276574;22;20070;-44
2021/04/17 07:13:04;;;;;;;28.50;14.65;;;11.20;75.30;;;;;;6266056;22;20050;-47
2021/04/17 07:15:37;;;;;;;17.83;7.70;;;11.20;74.60;;;;;;6266931;22;20027;-47
2021/04/17 07:18:29;;;;;;;15.68;6.72;;;11.50;74.90;;;;;;6265906;22;20355;-47
2021/04/17 07:21:26;;;;;;;143.13;113.97;;;11.70;70.80;;;;;;6268342;22;20365;-46
2021/04/17 07:23:58;;;;;;;31.60;17.15;;;12.10;69.70;;;;;;6277555;22;20039;-44
2021/04/17 07:26:28;;;;;;;27.17;18.13;;;11.90;70.40;;;;;;6266424;22;20070;-44
2021/04/17 07:28:54;;;;;;;33.50;24.10;;;11.80;68.40;;;;;;6265564;22;20111;-50
2021/04/17 07:31:35;;;;;;;27.08;17.30;;;12.00;71.30;;;;;;6275771;22;20027;-46
2021/04/17 07:34:24;;;;;;;22.15;10.48;;;12.20;68.90;;;;;;6266793;22;20022;-46
2021/04/17 07:37:01;;;;;;;24.52;14.35;;;12.10;67.30;;;;;;6265507;22;20020;-46
2021/04/17 07:39:33;;;;;;;23.45;13.30;;;11.70;65.70;;;;;;6267337;22;20020;-47
2021/04/17 07:42:04;;;;;;;15.10;6.63;;;12.10;68.50;;;;;;6277617;22;20325;-52
2021/04/17 07:44:46;;;;;;;14.70;6.88;;;12.10;68.10;;;;;;6266161;22;20020;-47
2021/04/17 07:47:29;;;;;;;15.05;7.30;;;12.20;68.10;;;;;;6265535;22;20022;-51
2021/04/17 07:50:09;;;;;;;14.80;5.97;;;12.20;67.20;;;;;;6265777;22;20266;-45
2021/04/17 07:52:42;;;;;;;13.90;5.57;;;11.90;65.30;;;;;;6266281;22;20020;-46
2021/04/17 07:55:12;;;;;;;;;;;12.10;66.70;;;;;;6266660;22;20110;-47
2021/04/17 07:57:54;;;;;;;15.73;7.82;;;12.30;64.20;;;;;;6276972;22;19926;-48
2021/04/17 08:00:26;;;;;;;21.80;12.05;;;12.60;67.30;;;;;;6271238;22;20110;-50
2021/04/17 08:02:58;;;;;;;33.00;23.55;;;12.60;62.90;;;;;;6264728;22;20019;-46
2021/04/17 08:05:25;;;;;;;14.73;4.45;;;12.90;64.40;;;;;;6265454;22;20045;-47
2021/04/17 08:07:57;;;;;;;36.83;27.92;;;13.10;63.60;;;;;;6275115;22;20027;-46
2021/04/17 08:10:26;;;;;;;12.55;5.05;;;13.40;63.60;;;;;;6265432;22;20033;-49
2021/04/17 08:12:59;;;;;;;30.42;21.67;;;13.70;63.80;;;;;;6239303;22;20073;-48
2021/04/17 08:15:25;;;;;;;19.00;11.38;;;13.90;62.70;;;;;;6239296;22;20166;-48
2021/04/17 08:18:04;;;;;;;18.08;11.15;;;14.00;60.90;;;;;;6265417;22;20531;-46
2021/04/17 08:20:36;;;;;;;11.80;6.10;;;14.10;59.80;;;;;;6264318;22;20016;-45
2021/04/17 08:23:05;;;;;;;14.38;5.50;;;14.00;56.40;;;;;;6276038;22;20116;-43
2021/04/17 08:25:35;;;;;;;14.55;6.30;;;14.20;59.50;;;;;;6266699;22;20015;-46
2021/04/17 08:28:02;;;;;;;12.50;5.10;;;14.30;58.40;;;;;;6266169;22;20022;-45
2021/04/17 08:30:31;;;;;;;15.57;5.15;;;14.10;57.20;;;;;;6265371;22;20073;-44
2021/04/17 08:33:14;;;;;;;11.27;5.25;;;14.20;56.80;;;;;;6265891;22;20016;-46
2021/04/17 08:35:41;;;;;;;59.65;49.35;;;14.20;55.90;;;;;;6264834;22;20020;-47
2021/04/17 08:38:11;;;;;;;59.45;50.65;;;14.30;57.10;;;;;;6239443;22;20029;-46
2021/04/17 08:40:40;;;;;;;47.88;36.72;;;14.50;57.30;;;;;;6267123;22;20039;-48
2021/04/17 08:43:18;;;;;;;23.27;16.40;;;14.90;56.80;;;;;;6265765;22;20055;-43
2021/04/17 08:46:20;;;;;;;16.13;9.60;;;14.40;55.00;;;;;;6265506;22;20016;-43
2021/04/17 08:48:54;;;;;;;10.50;5.60;;;14.70;55.70;;;;;;6265360;22;20047;-45
2021/04/17 08:51:24;;;;;;;19.83;14.43;;;14.50;53.50;;;;;;6265632;22;20016;-46
2021/04/17 08:54:14;;;;;;;59.53;47.65;;;14.80;55.20;;;;;;6266059;22;20016;-44
2021/04/17 08:56:52;;;;;;;21.60;12.77;;;15.00;54.20;;;;;;6266408;22;20043;-45
2021/04/17 08:59:22;;;;;;;23.70;18.23;;;15.10;54.80;;;;;;6265981;22;20472;-44
2021/04/17 09:01:50;;;;;;;26.20;19.75;;;15.10;53.60;;;;;;6267013;22;20019;-49
2021/04/17 09:04:22;;;;;;;13.43;8.32;;;14.80;53.00;;;;;;6265920;22;20099;-45
2021/04/17 09:06:54;;;;;;;;;;;14.60;52.90;;;;;;6265759;22;20123;-45
2021/04/17 09:09:28;;;;;;;11.60;7.97;;;14.50;52.50;;;;;;6266845;22;20457;-44
2021/04/17 09:12:29;;;;;;;16.83;6.10;;;14.50;53.10;;;;;;6276358;22;20574;-45
2021/04/17 09:14:59;;;;;;;16.00;4.57;;;14.50;52.30;;;;;;6275497;22;20079;-44
2021/04/17 09:17:31;;;;;;;10.68;4.60;;;14.80;53.20;;;;;;6277077;22;20035;-46
2021/04/17 09:20:10;;;;;;;11.27;5.00;;;15.00;50.10;;;;;;6274655;22;20325;-46
2021/04/17 09:22:45;;;;;;;11.90;4.50;;;15.30;49.40;;;;;;6268053;22;20024;-48
2021/04/17 09:25:40;;;;;;;9.38;4.13;;;15.50;48.80;;;;;;6265548;22;20022;-45
2021/04/17 09:28:16;;;;;;;56.35;49.97;;;15.70;46.70;;;;;;6275555;22;20042;-45
2021/04/17 09:30:50;;;;;;;41.90;35.20;;;15.80;48.10;;;;;;6265399;22;20493;-43
2021/04/17 09:33:18;;;;;;;36.42;29.70;;;15.90;45.90;;;;;;6265411;22;20023;-45
2021/04/17 09:35:56;;;;;;;34.60;25.55;;;15.80;47.00;;;;;;6267423;22;20016;-45
2021/04/17 09:38:31;;;;;;;31.45;26.33;;;15.90;45.00;;;;;;6276797;22;20019;-45
2021/04/17 09:40:59;;;;;;;14.23;9.20;;;16.00;44.60;;;;;;6268189;22;20051;-46
2021/04/17 09:43:35;;;;;;;16.88;11.07;;;15.70;42.30;;;;;;6266952;22;20093;-44
2021/04/17 09:46:29;;;;;;;9.55;4.05;;;15.60;43.50;;;;;;6265517;22;20026;-43
2021/04/17 09:49:06;;;;;;;13.98;8.50;;;15.90;42.70;;;;;;6233732;22;20027;-45
2021/04/17 09:51:33;;;;;;;10.05;4.45;;;16.00;43.30;;;;;;6278152;22;20043;-45
2021/04/17 09:54:05;;;;;;;9.32;5.07;;;16.30;41.40;;;;;;6267245;22;20456;-45
2021/04/17 09:56:41;;;;;;;9.57;4.03;;;16.30;41.40;;;;;;6267466;22;20066;-44
2021/04/17 09:59:11;;;;;;;8.68;3.85;;;16.00;40.00;;;;;;6276218;22;20077;-46
2021/04/17 10:01:56;;;;;;;7.05;3.67;;;16.20;41.00;;;;;;6268244;22;20107;-43
2021/04/17 10:04:40;;;;;;;;;;;16.10;38.80;;;;;;6267891;22;20472;-44
2021/04/17 10:07:09;;;;;;;9.75;3.80;;;16.00;41.80;;;;;;6276742;22;19926;-46
2021/04/17 10:09:39;;;;;;;12.35;4.07;;;15.90;40.70;;;;;;6268693;22;20030;-46
2021/04/17 10:12:08;;;;;;;8.32;3.75;;;16.50;39.70;;;;;;6239921;22;20038;-46
2021/04/17 10:14:39;;;;;;;7.53;3.20;;;16.40;40.00;;;;;;6267476;22;20016;-47
2021/04/17 10:17:09;;;;;;;8.65;3.70;;;16.50;40.40;;;;;;6267259;22;20031;-46
2021/04/17 10:19:40;;;;;;;9.32;3.35;;;16.90;39.90;;;;;;6265724;22;20098;-45
2021/04/17 10:22:12;;;;;;;8.07;2.80;;;17.00;39.80;;;;;;6268018;22;20023;-48
2021/04/17 10:24:42;;;;;;;8.30;3.17;;;16.90;38.80;;;;;;6267826;22;20393;-45
2021/04/17 10:27:14;;;;;;;6.55;3.13;;;17.10;40.40;;;;;;6239902;22;20020;-47
2021/04/17 10:29:52;;;;;;;7.07;3.03;;;17.40;39.30;;;;;;6266537;22;20019;-46
2021/04/17 10:32:25;;;;;;;7.05;3.40;;;17.50;38.70;;;;;;6267896;22;20020;-45
2021/04/17 10:34:59;;;;;;;66.95;59.88;;;17.00;38.50;;;;;;6267468;22;20449;-46
2021/04/17 10:37:38;;;;;;;36.55;31.05;;;17.80;39.20;;;;;;6268229;22;20019;-48
2021/04/17 10:40:10;;;;;;;21.98;17.15;;;17.70;39.50;;;;;;6266703;22;20126;-44
2021/04/17 10:42:52;;;;;;;37.65;33.58;;;17.30;37.80;;;;;;6267774;22;20070;-46
2021/04/17 10:45:38;;;;;;;29.85;26.10;;;17.40;37.90;;;;;;6266551;22;20081;-47
2021/04/17 10:48:19;;;;;;;20.67;17.15;;;17.30;38.70;;;;;;6277319;22;20095;-45
2021/04/17 10:50:51;;;;;;;18.50;14.77;;;17.20;39.20;;;;;;6266645;22;20016;-45
2021/04/17 10:53:27;;;;;;;16.65;12.68;;;17.50;38.00;;;;;;6267310;22;20012;-46
2021/04/17 10:56:01;;;;;;;10.07;4.88;;;17.60;36.50;;;;;;6268399;22;20103;-45
2021/04/17 10:58:34;;;;;;;73.35;65.70;;;17.70;36.30;;;;;;6268153;22;20022;-46
2021/04/17 11:01:15;;;;;;;58.03;52.03;;;18.50;38.70;;;;;;6277618;22;20899;-45
2021/04/17 11:03:51;;;;;;;30.00;26.77;;;18.50;38.20;;;;;;6266660;22;20027;-47
2021/04/17 11:06:23;;;;;;;25.42;20.67;;;18.40;36.50;;;;;;6277392;22;20023;-47
2021/04/17 11:09:02;;;;;;;29.05;24.63;;;18.80;36.70;;;;;;6267698;22;20422;-48
2021/04/17 11:11:59;;;;;;;23.80;18.25;;;18.70;36.30;;;;;;6267249;22;20098;-44
2021/04/17 11:14:42;;;;;;;8.35;6.03;;;18.60;34.60;;;;;;6253339;22;20015;-45
2021/04/17 11:17:18;;;;;;;;;;;19.00;33.30;;;;;;6268444;22;20349;-45
2021/04/17 11:19:47;;;;;;;31.08;27.85;;;18.60;35.20;;;;;;6277357;22;19990;-44
2021/04/17 11:22:19;;;;;;;41.33;35.60;;;18.80;35.80;;;;;;6277110;22;20479;-43
2021/04/17 11:25:00;;;;;;;18.52;14.27;;;18.40;34.40;;;;;;6276619;22;20047;-44
2021/04/17 11:27:27;;;;;;;25.75;22.20;;;18.30;35.20;;;;;;6267262;22;20093;-44
2021/04/17 11:29:56;;;;;;;16.33;10.07;;;18.20;34.80;;;;;;6265920;22;20047;-43
2021/04/17 11:32:26;;;;;;;11.32;5.38;;;17.60;35.30;;;;;;6266809;22;20054;-44
2021/04/17 11:35:00;;;;;;;7.47;4.68;;;17.70;34.60;;;;;;6267011;22;20015;-46
2021/04/17 11:37:32;;;;;;;8.13;4.90;;;17.60;35.40;;;;;;6266890;22;20038;-42
2021/04/17 11:39:58;;;;;;;7.20;4.28;;;17.40;35.20;;;;;;6266334;22;20101;-43
2021/04/17 11:42:26;;;;;;;8.45;4.00;;;17.70;35.40;;;;;;6267286;22;20087;-42
2021/04/17 11:44:59;;;;;;;7.57;3.30;;;17.90;34.70;;;;;;6278013;22;20016;-45
2021/04/17 11:47:25;;;;;;;5.82;2.92;;;18.00;34.60;;;;;;6266335;22;20185;-44
2021/04/17 11:49:53;;;;;;;5.97;2.65;;;18.00;32.80;;;;;;6265529;22;20346;-42
2021/04/17 11:52:23;;;;;;;5.88;2.83;;;17.90;34.80;;;;;;6276773;22;20412;-46
2021/04/17 11:54:52;;;;;;;6.90;3.15;;;18.50;34.30;;;;;;6265114;22;20380;-43
2021/04/17 11:57:18;;;;;;;7.50;2.67;;;18.80;33.40;;;;;;6267276;22;20656;-42
2021/04/17 11:59:45;;;;;;;48.28;41.00;;;18.20;33.50;;;;;;6273215;22;20023;-41
2021/04/17 12:02:11;;;;;;;38.30;32.38;;;18.40;34.10;;;;;;6267128;22;20022;-45
2021/04/17 12:04:40;;;;;;;27.90;20.85;;;18.40;34.90;;;;;;6237560;22;20023;-44
2021/04/17 12:07:09;;;;;;;16.52;11.43;;;18.50;34.30;;;;;;6277193;22;20106;-44
2021/04/17 12:09:35;;;;;;;14.07;8.93;;;18.20;34.30;;;;;;6278306;22;20047;-43
2021/04/17 12:12:02;;;;;;;16.45;9.27;;;18.00;35.20;;;;;;6267762;22;20015;-44
2021/04/17 12:14:34;;;;;;;10.98;4.53;;;17.60;35.50;;;;;;6267311;22;20019;-44
2021/04/17 12:17:03;;;;;;;10.75;5.97;;;17.30;36.10;;;;;;6267867;22;20019;-46
2021/04/17 12:19:32;;;;;;;10.00;4.45;;;17.60;35.70;;;;;;6267108;22;20020;-46
2021/04/17 12:22:01;;;;;;;8.10;3.85;;;17.50;35.60;;;;;;6265929;22;20395;-43
2021/04/17 12:24:31;;;;;;;6.35;2.75;;;17.60;36.50;;;;;;6266182;22;20601;-40
2021/04/17 12:27:02;;;;;;;6.70;3.03;;;17.80;34.70;;;;;;6266978;22;20475;-41
2021/04/17 12:29:29;;;;;;;6.45;2.78;;;18.00;34.50;;;;;;6266118;22;20051;-42
2021/04/17 12:31:58;;;;;;;7.82;2.63;;;18.20;35.00;;;;;;6264958;22;20024;-45
2021/04/17 12:34:30;;;;;;;72.65;64.90;;;17.90;35.60;;;;;;6277975;22;20042;-45
2021/04/17 12:36:59;;;;;;;64.78;58.20;;;17.50;36.80;;;;;;6277322;22;20015;-43
2021/04/17 12:39:31;;;;;;;19.23;12.77;;;17.40;36.50;;;;;;6265638;22;20349;-46
2021/04/17 12:42:01;;;;;;;14.93;13.32;;;17.00;36.00;;;;;;6265633;22;20015;-51
2021/04/17 12:44:29;;;;;;;21.55;18.80;;;16.80;36.60;;;;;;6275729;22;20023;-48
2021/04/17 12:47:01;;;;;;;12.18;7.60;;;16.70;37.20;;;;;;6265969;22;20023;-47
2021/04/17 12:49:30;;;;;;;10.23;6.97;;;16.50;36.80;;;;;;6275654;22;20015;-43
2021/04/17 12:51:58;;;;;;;9.25;3.42;;;17.20;35.90;;;;;;6264464;22;20015;-49
2021/04/17 12:54:31;;;;;;;8.60;5.07;;;17.70;34.30;;;;;;6264533;22;20024;-51
2021/04/17 12:56:59;;;;;;;24.47;6.07;;;18.00;34.80;;;;;;6266433;22;20054;-55
2021/04/17 12:59:26;;;;;;;8.18;3.28;;;18.30;34.30;;;;;;6265814;22;20258;-43
2021/04/17 13:01:52;;;;;;;10.95;3.50;;;18.00;34.30;;;;;;6249296;22;20046;-42
2021/04/17 13:04:25;;;;;;;4.90;2.78;;;17.70;33.90;;;;;;6265802;22;20025;-40
2021/04/17 13:06:51;;;;;;;7.95;2.90;;;18.00;34.00;;;;;;6266294;22;20023;-43
2021/04/17 13:09:20;;;;;;;8.48;2.63;;;17.90;34.30;;;;;;6265167;22;20023;-54
2021/04/17 13:11:50;;;;;;;9.07;3.40;;;17.60;34.80;;;;;;6266108;22;20326;-46
2021/04/17 13:14:21;;;;;;;7.60;2.90;;;17.40;34.20;;;;;;6278995;22;20119;-41
2021/04/17 13:16:47;;;;;;;7.00;2.92;;;18.10;34.50;;;;;;6268003;22;20023;-41
2021/04/17 13:19:18;;;;;;;5.85;2.63;;;18.30;34.70;;;;;;6251407;22;20039;-38
2021/04/17 13:21:46;;;;;;;4.93;2.45;;;18.60;34.00;;;;;;6265998;22;20082;-46
2021/04/17 13:24:18;;;;;;;5.30;2.10;;;18.80;32.50;;;;;;6277589;22;20103;-46
2021/04/17 13:26:47;;;;;;;6.43;2.35;;;18.80;32.10;;;;;;6269929;22;20016;-44
2021/04/17 13:29:16;;;;;;;7.03;2.50;;;18.50;32.30;;;;;;6243930;22;20516;-38
2021/04/17 13:31:42;;;;;;;4.53;1.98;;;18.40;32.50;;;;;;6269431;22;20357;-37
2021/04/17 13:34:08;;;;;;;11.18;4.18;;;18.30;31.50;;;;;;6281031;22;20027;-37
2021/04/17 13:36:35;;;;;;;16.70;8.10;;;18.80;32.00;;;;;;6271412;22;20019;-39
2021/04/17 13:39:02;;;;;;;61.28;51.67;;;19.30;32.20;;;;;;6279653;22;20047;-38
2021/04/17 13:41:31;;;;;;;18.88;14.05;;;19.10;32.90;;;;;;6269996;22;20383;-38
2021/04/17 13:44:00;;;;;;;12.10;7.60;;;19.60;32.40;;;;;;6269429;22;20402;-39
2021/04/17 13:46:27;;;;;;;8.68;2.70;;;19.80;32.00;;;;;;6269713;22;20391;-38
2021/04/17 13:48:55;;;;;;;6.07;3.35;;;20.00;31.30;;;;;;6268953;22;20042;-38
2021/04/17 13:51:24;;;;;;;11.07;5.68;;;20.30;30.70;;;;;;6268923;22;20016;-38
2021/04/17 13:53:50;;;;;;;11.75;4.00;;;20.10;30.20;;;;;;6270074;22;20099;-39
2021/04/17 13:56:16;;;;;;;7.03;2.67;;;20.10;30.90;;;;;;6269199;22;20085;-38
2021/04/17 13:58:45;;;;;;;5.53;2.55;;;20.10;30.80;;;;;;6268659;22;20019;-38
2021/04/17 14:01:11;;;;;;;8.10;2.97;;;20.30;30.60;;;;;;6269185;22;20130;-38
2021/04/17 14:03:38;;;;;;;9.60;3.30;;;20.30;30.30;;;;;;6268698;22;20059;-38
2021/04/17 14:06:04;;;;;;;6.85;2.38;;;20.30;30.10;;;;;;6270242;22;20027;-38
2021/04/17 14:08:30;;;;;;;4.53;2.10;;;20.40;30.40;;;;;;6269121;22;20016;-38
2021/04/17 14:11:01;;;;;;;4.40;2.00;;;19.70;30.00;;;;;;6269057;22;20016;-38